Pagrindinis puslapis
METAR-TAF:

METAR-TAF

Oro uostai :

Togiak, Aliaska, Jungtinės Amerikos Valstijos

platuma: 59-03N, ilguma: 160-24W, Aukštis: 6 m

Dabartinis oras

Ataskaita buvo paskelbta 17 minutes, ne 19:56 UTC
Vėjas 7 kt iš Šiaurės
Temperatūra -4°C
Drėgmė 100%
Slėgis 1007 hPa
Matomumas: 16.1 km
Išsisklaidę debesys ne aukštis 2300 ft
Su prošvaistėmis ne aukštis 3000 ft
Apsiniaukę ne aukštis 3500 ft

METAR: PATG 161956Z AUTO 01007KT 10SM SCT023 BKN030 OVC035 M04/M04 A2975 RMK AO2 SNE49 SLP169 P0000 T10391044 FZRANO

Laikas: 11:13 (20:13 UTC)


TAF: trūkstamas

Orai ataskaitas ir orų prognozės (METAR, TAF).

turimą stotys yra geltonos ir raudonos taškus žemėlapyje.

Perkelti pele per norėdami pamatyti stoties vardą.

Tada spustelėkite, norėdami matyti oro stebėjimo ir prognozės.

Norėdami pakeisti žemėlapį: spustelėkite ant žalios mygtukų su juodo kryžiaus žemyn,; žalią mygtuką su brūkšneliu, jei norite nutolinti; arba žalių rodyklių gretimoms žemėlapius.


METAR-TAF: